Time,TemperatureF,DewpointF,PressureIn,WindDirection,WindDirectionDegrees,WindSpeedMPH,WindSpeedGustMPH,Humidity,HourlyPrecipIn,Conditions,Clouds,dailyrainin,SolarRadiationWatts/m^2,SoftwareType,DateUTC
2013-11-04 00:02:00,41.6,37.4,29.51,ENE,57,12.7,12.7,85,0.00,RA,,0.00,0.0,WeatherDisplay:10.37,2013-11-04 09:02:00,
2013-11-04 00:07:00,41.6,37.4,29.51,ENE,67,17.3,17.3,85,0.00,RA,,0.00,0.0,WeatherDisplay:10.37,2013-11-04 09:07:00,
2013-11-04 00:12:00,41.6,37.4,29.51,NE,52,9.2,9.2,85,0.00,OVC,,0.00,0.0,WeatherDisplay:10.37,2013-11-04 09:12:00,
2013-11-04 00:17:00,41.5,37.3,29.50,ENE,59,10.4,10.4,85,0.00,OVC,,0.00,0.0,WeatherDisplay:10.37,2013-11-04 09:17:00,
2013-11-04 00:22:00,41.5,37.3,29.50,East,98,11.5,11.5,85,0.00,OVC,,0.00,0.0,WeatherDisplay:10.37,2013-11-04 09:22:00,
2013-11-04 00:27:00,41.4,37.2,29.50,NE,36,8.1,8.6,85,0.00,OVC,,0.00,0.0,WeatherDisplay:10.37,2013-11-04 09:27:00,
2013-11-04 00:32:00,41.4,37.2,29.50,NE,34,8.1,8.1,85,0.00,OVC,,0.00,0.0,WeatherDisplay:10.37,2013-11-04 09:32:00,
2013-11-04 00:37:00,41.4,37.2,29.50,NE,53,8.0,8.0,85,0.00,OVC,,0.00,0.0,WeatherDisplay:10.37,2013-11-04 09:37:00,
2013-11-04 00:42:00,41.3,37.1,29.50,ENE,76,11.5,11.5,85,0.00,OVC,,0.00,0.0,WeatherDisplay:10.37,2013-11-04 09:42:00,
2013-11-04 00:47:00,41.3,37.1,29.50,ENE,61,10.4,10.4,85,0.00,OVC,,0.00,0.0,WeatherDisplay:10.37,2013-11-04 09:47:00,
2013-11-04 00:52:00,41.2,37.0,29.50,ENE,59,13.0,13.0,85,0.00,OVC,,0.00,0.0,WeatherDisplay:10.37,2013-11-04 09:52:00,
2013-11-04 00:57:00,41.2,37.0,29.50,NE,53,11.5,11.5,85,0.00,OVC,,0.00,0.0,WeatherDisplay:10.37,2013-11-04 09:57:00,
2013-11-04 01:02:00,41.2,37.0,29.50,NE,39,15.0,15.0,85,0.00,OVC,,0.00,0.0,WeatherDisplay:10.37,2013-11-04 10:02:00,
2013-11-04 01:07:00,41.1,36.9,29.50,NE,46,13.8,13.8,85,0.00,OVC,,0.00,0.0,WeatherDisplay:10.37,2013-11-04 10:07:00,
2013-11-04 01:12:00,41.1,36.9,29.49,East,80,15.0,15.0,85,0.00,OVC,,0.00,0.0,WeatherDisplay:10.37,2013-11-04 10:12:00,
2013-11-04 01:17:00,41.1,36.9,29.49,East,82,15.0,15.0,85,0.00,OVC,,0.00,0.0,WeatherDisplay:10.37,2013-11-04 10:17:00,
2013-11-04 01:22:00,41.0,36.8,29.49,NE,53,11.5,11.5,85,0.00,OVC,,0.00,0.0,WeatherDisplay:10.37,2013-11-04 10:22:00,
2013-11-04 01:27:00,41.0,36.8,29.49,NE,55,13.8,13.8,85,0.00,OVC,,0.00,0.0,WeatherDisplay:10.37,2013-11-04 10:27:00,
2013-11-04 01:32:00,41.0,36.8,29.48,ESE,106,11.5,11.5,85,0.00,OVC,,0.00,0.0,WeatherDisplay:10.37,2013-11-04 10:32:00,
2013-11-04 01:37:00,40.9,36.7,29.48,ENE,59,11.5,11.5,85,0.00,OVC,,0.00,0.0,WeatherDisplay:10.37,2013-11-04 10:37:00,
2013-11-04 01:42:00,40.9,36.7,29.48,ENE,66,11.5,11.5,85,0.00,OVC,,0.00,0.0,WeatherDisplay:10.37,2013-11-04 10:42:00,
2013-11-04 01:47:00,40.9,36.7,29.48,NE,56,13.8,13.8,85,0.00,OVC,,0.00,0.0,WeatherDisplay:10.37,2013-11-04 10:47:00,
2013-11-04 01:52:00,40.9,36.7,29.48,NE,55,9.2,9.2,85,0.00,OVC,,0.00,0.0,WeatherDisplay:10.37,2013-11-04 10:52:00,
2013-11-04 01:57:00,40.9,36.7,29.48,ENE,57,9.0,9.0,85,0.00,OVC,,0.00,0.0,WeatherDisplay:10.37,2013-11-04 10:57:00,
2013-11-04 02:02:00,40.9,36.7,29.47,East,96,12.7,12.7,85,0.00,OVC,,0.00,0.0,WeatherDisplay:10.37,2013-11-04 11:02:00,
2013-11-04 02:07:00,40.9,36.7,29.48,NE,54,8.1,8.1,85,0.00,OVC,,0.00,0.0,WeatherDisplay:10.37,2013-11-04 11:07:00,
2013-11-04 02:12:00,40.9,36.7,29.47,NE,36,12.7,12.7,85,0.00,OVC,,0.00,0.0,WeatherDisplay:10.37,2013-11-04 11:12:00,
2013-11-04 02:15:00,40.9,36.7,29.47,ENE,68,13.8,13.8,85,0.00,OVC,,0.00,0.0,WeatherDisplay:10.37,2013-11-04 11:15:00,
2013-11-04 02:20:00,40.9,36.7,29.47,NE,46,11.5,11.5,85,0.00,OVC,,0.00,0.0,WeatherDisplay:10.37,2013-11-04 11:20:00,
2013-11-04 02:22:00,41.0,36.8,29.47,NE,40,11.5,11.5,85,0.00,OVC,,0.00,0.0,WeatherDisplay:10.37,2013-11-04 11:22:00,
2013-11-04 02:27:00,41.0,36.8,29.46,ENE,62,12.7,12.7,85,0.00,OVC,,0.00,0.0,WeatherDisplay:10.37,2013-11-04 11:27:00,
2013-11-04 02:32:00,40.9,36.4,29.46,ENE,71,10.4,10.4,84,0.00,OVC,,0.00,0.0,WeatherDisplay:10.37,2013-11-04 11:32:00,
2013-11-04 02:37:00,40.9,36.4,29.46,East,83,16.1,16.1,84,0.00,OVC,,0.00,0.0,WeatherDisplay:10.37,2013-11-04 11:37:00,
2013-11-04 02:42:00,40.9,36.4,29.46,NNE,21,16.1,16.1,84,0.00,OVC,,0.00,0.0,WeatherDisplay:10.37,2013-11-04 11:42:00,
2013-11-04 02:47:00,41.0,36.5,29.45,ENE,62,9.2,9.2,84,0.00,OVC,,0.00,0.0,WeatherDisplay:10.37,2013-11-04 11:47:00,
2013-11-04 02:52:00,40.9,36.4,29.46,ENE,65,11.5,11.5,84,0.00,OVC,,0.00,0.0,WeatherDisplay:10.37,2013-11-04 11:52:00,
2013-11-04 02:57:00,40.9,36.4,29.45,ENE,71,8.0,8.0,84,0.00,OVC,,0.00,0.0,WeatherDisplay:10.37,2013-11-04 11:57:00,
2013-11-04 03:02:00,40.9,36.1,29.45,ENE,73,10.4,10.4,83,0.00,OVC,,0.00,0.0,WeatherDisplay:10.37,2013-11-04 12:02:00,
2013-11-04 03:07:00,40.9,36.1,29.45,NE,37,17.3,17.3,83,0.00,OVC,,0.00,0.0,WeatherDisplay:10.37,2013-11-04 12:07:00,
2013-11-04 03:12:00,40.9,36.1,29.45,ENE,78,6.9,6.9,83,0.00,OVC,,0.00,0.0,WeatherDisplay:10.37,2013-11-04 12:12:00,
2013-11-04 03:17:00,40.9,36.1,29.45,ENE,65,11.5,11.5,83,0.00,OVC,,0.00,0.0,WeatherDisplay:10.37,2013-11-04 12:17:00,
2013-11-04 03:22:00,40.9,36.1,29.44,NE,48,12.0,12.0,83,0.00,OVC,,0.00,0.0,WeatherDisplay:10.37,2013-11-04 12:22:00,
2013-11-04 03:27:00,40.9,35.8,29.45,ENE,67,16.1,16.1,82,0.00,OVC,,0.00,0.0,WeatherDisplay:10.37,2013-11-04 12:27:00,
2013-11-04 03:32:00,40.9,35.8,29.44,ENE,67,11.5,11.5,82,0.00,OVC,,0.00,0.0,WeatherDisplay:10.37,2013-11-04 12:32:00,
2013-11-04 03:37:00,40.9,35.8,29.44,North,5,13.8,13.8,82,0.00,OVC,,0.00,0.0,WeatherDisplay:10.37,2013-11-04 12:37:00,
2013-11-04 03:42:00,41.0,35.9,29.44,NE,48,11.5,11.5,82,0.00,OVC,,0.00,0.0,WeatherDisplay:10.37,2013-11-04 12:42:00,
2013-11-04 03:47:00,41.0,35.9,29.43,NE,44,12.7,12.7,82,0.00,OVC,,0.00,0.0,WeatherDisplay:10.37,2013-11-04 12:47:00,
2013-11-04 03:52:00,41.1,36.0,29.44,East,82,10.4,10.4,82,0.00,OVC,,0.00,0.0,WeatherDisplay:10.37,2013-11-04 12:52:00,
2013-11-04 03:57:00,41.1,36.0,29.44,ENE,65,12.7,12.7,82,0.00,OVC,,0.00,0.0,WeatherDisplay:10.37,2013-11-04 12:57:00,
2013-11-04 04:02:00,41.1,36.0,29.43,ENE,69,12.7,12.7,82,0.00,OVC,,0.00,0.0,WeatherDisplay:10.37,2013-11-04 13:02:00,
2013-11-04 04:07:00,41.1,36.0,29.44,ENE,57,14.0,14.0,82,0.00,OVC,,0.00,0.0,WeatherDisplay:10.37,2013-11-04 13:07:00,
2013-11-04 04:12:00,41.2,36.1,29.44,East,89,14.0,14.0,82,0.00,OVC,,0.00,0.0,WeatherDisplay:10.37,2013-11-04 13:12:00,
2013-11-04 04:17:00,41.2,36.1,29.43,NE,45,15.0,15.0,82,0.00,OVC,,0.00,0.0,WeatherDisplay:10.37,2013-11-04 13:17:00,
2013-11-04 04:22:00,41.2,35.8,29.43,ESE,119,11.5,11.5,81,0.00,OVC,,0.00,0.0,WeatherDisplay:10.37,2013-11-04 13:22:00,
2013-11-04 04:27:00,41.1,35.7,29.43,NE,55,11.0,11.0,81,0.00,OVC,,0.00,0.0,WeatherDisplay:10.37,2013-11-04 13:27:00,
2013-11-04 04:32:00,41.1,35.7,29.43,NNE,32,10.0,10.0,81,0.00,OVC,,0.00,0.0,WeatherDisplay:10.37,2013-11-04 13:32:00,
2013-11-04 04:37:00,41.1,35.7,29.42,East,92,15.0,15.0,81,0.00,OVC,,0.00,0.0,WeatherDisplay:10.37,2013-11-04 13:37:00,
2013-11-04 04:42:00,41.0,35.6,29.42,NE,53,13.8,13.8,81,0.00,OVC,,0.00,0.0,WeatherDisplay:10.37,2013-11-04 13:42:00,
2013-11-04 04:47:00,41.0,35.6,29.42,East,90,16.1,16.1,81,0.00,OVC,,0.00,0.0,WeatherDisplay:10.37,2013-11-04 13:47:00,
2013-11-04 04:52:00,41.0,35.6,29.42,ENE,71,12.7,12.7,81,0.00,OVC,,0.00,0.0,WeatherDisplay:10.37,2013-11-04 13:52:00,
2013-11-04 04:57:00,41.0,35.6,29.42,East,98,12.7,12.7,81,0.00,OVC,,0.00,0.0,WeatherDisplay:10.37,2013-11-04 13:57:00,
2013-11-04 05:02:00,41.0,35.6,29.42,NE,49,9.2,9.2,81,0.00,OVC,,0.00,0.0,WeatherDisplay:10.37,2013-11-04 14:02:00,
2013-11-04 05:07:00,41.0,35.6,29.42,ENE,65,12.7,12.7,81,0.00,OVC,,0.00,0.0,WeatherDisplay:10.37,2013-11-04 14:07:00,
2013-11-04 05:12:00,41.0,35.6,29.42,ESE,109,11.5,11.5,81,0.00,OVC,,0.00,0.0,WeatherDisplay:10.37,2013-11-04 14:12:00,
2013-11-04 05:17:00,41.0,35.6,29.42,ENE,68,12.7,12.7,81,0.00,OVC,,0.00,0.0,WeatherDisplay:10.37,2013-11-04 14:17:00,
2013-11-04 05:22:00,41.0,35.6,29.41,ENE,75,14.0,14.0,81,0.00,OVC,,0.00,0.0,WeatherDisplay:10.37,2013-11-04 14:22:00,
2013-11-04 05:27:00,41.0,35.6,29.41,East,81,13.8,13.8,81,0.00,OVC,,0.00,0.0,WeatherDisplay:10.37,2013-11-04 14:27:00,
2013-11-04 05:32:00,41.0,35.6,29.41,NE,44,16.1,16.1,81,0.00,OVC,,0.00,0.0,WeatherDisplay:10.37,2013-11-04 14:32:00,
2013-11-04 05:37:00,41.0,35.6,29.40,ENE,65,11.5,11.5,81,0.00,OVC,,0.00,0.0,WeatherDisplay:10.37,2013-11-04 14:37:00,
2013-11-04 05:42:00,40.9,35.5,29.40,NE,52,11.5,11.5,81,0.00,OVC,,0.00,0.0,WeatherDisplay:10.37,2013-11-04 14:42:00,
2013-11-04 05:47:00,41.0,35.6,29.40,NE,49,11.5,11.5,81,0.00,OVC,,0.00,0.0,WeatherDisplay:10.37,2013-11-04 14:47:00,
2013-11-04 05:52:00,41.0,35.6,29.40,ENE,65,11.5,11.5,81,0.00,OVC,,0.00,0.0,WeatherDisplay:10.37,2013-11-04 14:52:00,
2013-11-04 05:57:00,41.0,35.6,29.40,NE,43,10.4,10.4,81,0.00,OVC,,0.00,0.0,WeatherDisplay:10.37,2013-11-04 14:57:00,
2013-11-04 06:02:00,41.0,35.6,29.40,NE,42,13.8,13.8,81,0.00,OVC,,0.00,0.0,WeatherDisplay:10.37,2013-11-04 15:02:00,
2013-11-04 06:07:00,41.0,37.1,29.40,NE,55,11.5,11.5,86,0.00,OVC,,0.00,0.0,WeatherDisplay:10.37,2013-11-04 15:07:00,
2013-11-04 06:12:00,41.0,35.9,29.39,NE,51,12.7,12.7,82,0.00,OVC,,0.00,0.0,WeatherDisplay:10.37,2013-11-04 15:12:00,
2013-11-04 06:17:00,41.0,35.6,29.40,North,5,10.4,10.4,81,0.00,OVC,,0.00,0.0,WeatherDisplay:10.37,2013-11-04 15:17:00,
2013-11-04 06:22:00,41.0,35.6,29.39,NE,51,13.8,13.8,81,0.00,OVC,,0.00,0.0,WeatherDisplay:10.37,2013-11-04 15:22:00,
2013-11-04 06:27:00,41.1,35.7,29.39,NNE,19,13.8,13.8,81,0.00,OVC,,0.00,0.0,WeatherDisplay:10.37,2013-11-04 15:27:00,
2013-11-04 06:32:00,41.1,35.7,29.38,NE,36,13.8,13.8,81,0.00,OVC,,0.00,0.0,WeatherDisplay:10.37,2013-11-04 15:32:00,
2013-11-04 06:37:00,41.1,35.7,29.39,East,88,13.0,13.0,81,0.00,OVC,,0.00,0.0,WeatherDisplay:10.37,2013-11-04 15:37:00,
2013-11-04 06:42:00,41.1,35.7,29.38,East,79,16.1,16.1,81,0.00,OVC,,0.00,0.0,WeatherDisplay:10.37,2013-11-04 15:42:00,
2013-11-04 06:47:00,41.0,35.6,29.38,ENE,65,12.7,12.7,81,0.00,OVC,,0.00,0.0,WeatherDisplay:10.37,2013-11-04 15:47:00,
2013-11-04 06:52:00,41.0,35.6,29.38,East,89,9.0,9.0,81,0.00,OVC,,0.00,0.0,WeatherDisplay:10.37,2013-11-04 15:52:00,
2013-11-04 06:57:00,41.0,35.6,29.38,East,84,11.5,11.5,81,0.00,OVC,,0.00,0.0,WeatherDisplay:10.37,2013-11-04 15:57:00,
2013-11-04 07:02:00,41.0,35.6,29.38,NNE,22,10.4,10.4,81,0.00,OVC,,0.00,0.0,WeatherDisplay:10.37,2013-11-04 16:02:00,
2013-11-04 07:07:00,40.9,35.5,29.38,ENE,68,11.5,11.5,81,0.00,OVC,,0.00,0.0,WeatherDisplay:10.37,2013-11-04 16:07:00,
2013-11-04 07:12:00,40.9,35.8,29.38,ENE,78,13.8,13.8,82,0.00,OVC,,0.00,0.0,WeatherDisplay:10.37,2013-11-04 16:12:00,
2013-11-04 07:17:00,40.9,35.8,29.38,ENE,60,9.2,9.2,82,0.00,OVC,,0.00,0.0,WeatherDisplay:10.37,2013-11-04 16:17:00,
2013-11-04 07:22:00,40.9,35.8,29.38,ENE,57,6.9,6.9,82,0.00,OVC,,0.00,0.0,WeatherDisplay:10.37,2013-11-04 16:22:00,
2013-11-04 07:27:00,40.8,35.4,29.38,NE,48,17.3,17.3,81,0.00,OVC,,0.00,0.0,WeatherDisplay:10.37,2013-11-04 16:27:00,
2013-11-04 07:32:00,40.8,35.4,29.37,East,80,10.4,10.4,81,0.00,OVC,,0.00,0.0,WeatherDisplay:10.37,2013-11-04 16:32:00,
2013-11-04 07:37:00,40.7,35.3,29.37,NNE,30,13.0,13.0,81,0.00,OVC,,0.00,0.0,WeatherDisplay:10.37,2013-11-04 16:37:00,
2013-11-04 07:42:00,40.7,35.3,29.37,East,94,10.4,10.4,81,0.00,OVC,,0.00,0.0,WeatherDisplay:10.37,2013-11-04 16:42:00,
2013-11-04 07:47:00,40.7,35.3,29.37,East,83,10.4,10.4,81,0.00,OVC,,0.00,0.0,WeatherDisplay:10.37,2013-11-04 16:47:00,
2013-11-04 07:52:00,40.7,35.3,29.37,East,79,9.2,9.2,81,0.00,OVC,,0.00,0.0,WeatherDisplay:10.37,2013-11-04 16:52:00,
2013-11-04 07:57:00,40.6,35.2,29.36,ENE,74,9.2,9.2,81,0.00,OVC,,0.00,0.0,WeatherDisplay:10.37,2013-11-04 16:57:00,
2013-11-04 08:02:00,40.5,35.1,29.37,ENE,67,10.0,10.0,81,0.00,OVC,,0.00,0.0,WeatherDisplay:10.37,2013-11-04 17:02:00,
2013-11-04 08:07:00,40.5,35.4,29.36,NE,46,10.4,10.4,82,0.00,OVC,,0.00,0.0,WeatherDisplay:10.37,2013-11-04 17:07:00,
2013-11-04 08:12:00,40.5,35.4,29.36,East,92,11.5,11.5,82,0.00,OVC,,0.00,0.0,WeatherDisplay:10.37,2013-11-04 17:12:00,
2013-11-04 08:17:00,40.4,35.3,29.36,NE,55,12.7,12.7,82,0.00,OVC,,0.00,0.0,WeatherDisplay:10.37,2013-11-04 17:17:00,
2013-11-04 08:22:00,40.4,35.3,29.36,NE,52,15.0,15.0,82,0.00,OVC,,0.00,0.0,WeatherDisplay:10.37,2013-11-04 17:22:00,
2013-11-04 08:27:00,40.3,35.2,29.36,ENE,63,11.5,11.5,82,0.00,OVC,,0.00,0.0,WeatherDisplay:10.37,2013-11-04 17:27:00,
2013-11-04 08:32:00,40.4,35.3,29.36,NE,49,12.7,12.7,82,0.00,OVC,,0.00,0.0,WeatherDisplay:10.37,2013-11-04 17:32:00,
2013-11-04 08:37:00,40.4,35.3,29.36,East,84,10.4,10.4,82,0.00,OVC,,0.00,0.0,WeatherDisplay:10.37,2013-11-04 17:37:00,
2013-11-04 08:42:00,40.4,35.3,29.36,ENE,63,12.7,12.7,82,0.00,OVC,,0.00,0.0,WeatherDisplay:10.37,2013-11-04 17:42:00,
2013-11-04 08:47:00,40.4,35.3,29.36,NE,37,8.0,8.0,82,0.00,OVC,,0.00,5.0,WeatherDisplay:10.37,2013-11-04 17:47:00,
2013-11-04 08:52:00,40.4,35.0,29.36,ENE,59,12.0,12.0,81,0.00,OVC,,0.00,7.0,WeatherDisplay:10.37,2013-11-04 17:52:00,
2013-11-04 08:57:00,40.4,35.0,29.36,NE,55,10.4,10.4,81,0.00,OVC,,0.00,9.0,WeatherDisplay:10.37,2013-11-04 17:57:00,
2013-11-04 09:02:00,40.4,35.0,29.36,NE,50,15.0,15.0,81,0.00,BKN,,0.00,12.0,WeatherDisplay:10.37,2013-11-04 18:02:00,
2013-11-04 09:07:00,40.5,35.1,29.36,ENE,57,7.0,7.0,81,0.00,BKN,,0.00,18.0,WeatherDisplay:10.37,2013-11-04 18:07:00,
2013-11-04 09:12:00,40.5,35.1,29.36,ENE,63,11.5,11.5,81,0.00,BKN,,0.00,25.0,WeatherDisplay:10.37,2013-11-04 18:12:00,
2013-11-04 09:17:00,40.6,34.9,29.35,NE,55,10.0,10.0,80,0.00,BKN,,0.00,33.0,WeatherDisplay:10.37,2013-11-04 18:17:00,
2013-11-04 09:22:00,40.7,35.0,29.36,NNW,348,9.2,9.2,80,0.00,BKN,,0.00,46.0,WeatherDisplay:10.37,2013-11-04 18:22:00,
2013-11-04 09:28:00,40.8,35.1,29.36,ENE,76,6.9,6.9,80,0.00,BKN,,0.00,62.0,WeatherDisplay:10.37,2013-11-04 18:28:00,
2013-11-04 09:33:00,40.9,35.2,29.36,ENE,65,12.7,12.7,80,0.00,BKN,,0.00,74.0,WeatherDisplay:10.37,2013-11-04 18:33:00,
2013-11-04 09:38:00,41.0,35.6,29.36,ENE,58,9.2,9.2,81,0.00,BKN,,0.00,77.0,WeatherDisplay:10.37,2013-11-04 18:38:00,
2013-11-04 09:43:00,41.1,35.4,29.36,East,85,11.5,11.5,80,0.00,BKN,,0.00,79.0,WeatherDisplay:10.37,2013-11-04 18:43:00,
2013-11-04 09:48:00,41.2,35.2,29.35,NE,48,16.1,16.1,79,0.00,BKN,,0.00,83.0,WeatherDisplay:10.37,2013-11-04 18:48:00,
2013-11-04 09:53:00,41.3,35.3,29.35,NE,54,12.7,12.7,79,0.00,BKN,,0.00,88.0,WeatherDisplay:10.37,2013-11-04 18:53:00,
2013-11-04 09:58:00,41.3,35.3,29.35,NE,45,10.4,10.4,79,0.00,BKN,,0.00,95.0,WeatherDisplay:10.37,2013-11-04 18:58:00,
2013-11-04 10:03:00,41.4,35.7,29.35,ENE,59,13.8,13.8,80,0.00,BKN,,0.00,97.0,WeatherDisplay:10.37,2013-11-04 19:03:00,
2013-11-04 10:08:00,41.5,35.8,29.35,East,82,15.0,15.0,80,0.00,BKN,,0.00,93.0,WeatherDisplay:10.37,2013-11-04 19:08:00,
2013-11-04 10:13:00,41.6,36.2,29.35,ENE,74,16.1,16.1,81,0.00,BKN,,0.00,90.0,WeatherDisplay:10.37,2013-11-04 19:13:00,
2013-11-04 10:18:00,41.7,36.3,29.35,NE,39,12.7,12.7,81,0.00,BKN,,0.00,88.0,WeatherDisplay:10.37,2013-11-04 19:18:00,
2013-11-04 10:23:00,41.8,36.4,29.35,NE,48,11.5,11.5,81,0.00,BKN,,0.00,90.0,WeatherDisplay:10.37,2013-11-04 19:23:00,
2013-11-04 10:28:00,41.8,36.4,29.35,NE,43,11.5,11.5,81,0.00,BKN,,0.00,88.0,WeatherDisplay:10.37,2013-11-04 19:28:00,
2013-11-04 10:33:00,41.9,36.2,29.34,NNE,24,11.5,11.5,80,0.00,BKN,,0.00,84.0,WeatherDisplay:10.37,2013-11-04 19:33:00,
2013-11-04 10:38:00,42.0,36.0,29.34,East,87,15.0,15.0,79,0.00,BKN,,0.00,79.0,WeatherDisplay:10.37,2013-11-04 19:38:00,
2013-11-04 10:43:00,41.9,35.9,29.34,NE,49,12.7,12.7,79,0.00,BKN,,0.00,81.0,WeatherDisplay:10.37,2013-11-04 19:43:00,
2013-11-04 10:48:00,41.9,35.9,29.34,NE,49,19.6,19.6,79,0.00,BKN,,0.00,77.0,WeatherDisplay:10.37,2013-11-04 19:48:00,
2013-11-04 10:53:00,41.9,35.5,29.34,NE,55,10.4,10.4,78,0.00,BKN,,0.00,79.0,WeatherDisplay:10.37,2013-11-04 19:53:00,
2013-11-04 10:58:00,41.8,35.4,29.34,NE,40,12.7,12.7,78,0.00,BKN,,0.00,81.0,WeatherDisplay:10.37,2013-11-04 19:58:00,
2013-11-04 11:03:00,41.8,35.4,29.33,NNE,13,12.7,12.7,78,0.00,FEW,,0.00,83.0,WeatherDisplay:10.37,2013-11-04 20:03:00,
2013-11-04 11:08:00,41.8,35.4,29.33,NE,39,10.4,10.4,78,0.00,FEW,,0.00,88.0,WeatherDisplay:10.37,2013-11-04 20:08:00,
2013-11-04 11:13:00,41.8,35.4,29.33,ENE,57,10.4,10.4,78,0.00,FEW,,0.00,98.0,WeatherDisplay:10.37,2013-11-04 20:13:00,
2013-11-04 11:18:00,41.9,35.2,29.33,NE,55,12.7,12.7,77,0.00,FEW,,0.00,114.0,WeatherDisplay:10.37,2013-11-04 20:18:00,
2013-11-04 11:23:00,41.9,35.2,29.33,NE,45,11.5,11.5,77,0.00,FEW,,0.00,135.0,WeatherDisplay:10.37,2013-11-04 20:23:00,
2013-11-04 11:28:00,42.1,35.1,29.33,NE,52,11.5,11.5,76,0.00,FEW,,0.00,163.0,WeatherDisplay:10.37,2013-11-04 20:28:00,
2013-11-04 11:33:00,42.4,35.4,29.33,NE,46,11.5,11.5,76,0.00,FEW,,0.00,183.0,WeatherDisplay:10.37,2013-11-04 20:33:00,
2013-11-04 11:38:00,42.7,35.3,29.33,NE,50,15.0,15.0,75,0.00,FEW,,0.00,171.0,WeatherDisplay:10.37,2013-11-04 20:38:00,
2013-11-04 11:43:00,42.8,35.4,29.33,East,86,13.0,13.0,75,0.00,FEW,,0.00,148.0,WeatherDisplay:10.37,2013-11-04 20:43:00,
2013-11-04 11:48:00,42.9,35.2,29.33,NE,53,15.0,15.0,74,0.00,FEW,,0.00,128.0,WeatherDisplay:10.37,2013-11-04 20:48:00,
2013-11-04 11:53:00,42.9,35.2,29.33,ENE,63,10.4,10.4,74,0.00,FEW,,0.00,100.0,WeatherDisplay:10.37,2013-11-04 20:53:00,
2013-11-04 11:58:00,42.7,35.0,29.32,ENE,57,11.5,11.5,74,0.00,FEW,,0.00,91.0,WeatherDisplay:10.37,2013-11-04 20:58:00,
2013-11-04 12:03:00,42.5,35.1,29.33,NNE,25,11.5,11.5,75,0.00,BKN,,0.00,88.0,WeatherDisplay:10.37,2013-11-04 21:03:00,
2013-11-04 12:08:00,42.4,35.0,29.32,NE,55,10.4,10.4,75,0.00,BKN,,0.00,86.0,WeatherDisplay:10.37,2013-11-04 21:08:00,
2013-11-04 12:13:00,42.3,35.3,29.32,ENE,59,11.5,11.5,76,0.00,BKN,,0.00,83.0,WeatherDisplay:10.37,2013-11-04 21:13:00,
2013-11-04 12:18:00,42.3,35.3,29.32,NE,44,9.2,9.2,76,0.00,BKN,,0.00,77.0,WeatherDisplay:10.37,2013-11-04 21:18:00,
2013-11-04 12:23:00,42.2,35.2,29.32,ENE,58,11.5,11.5,76,0.00,BKN,,0.00,70.0,WeatherDisplay:10.37,2013-11-04 21:23:00,
2013-11-04 12:28:00,42.1,34.7,29.32,ENE,71,11.5,11.5,75,0.00,BKN,,0.00,67.0,WeatherDisplay:10.37,2013-11-04 21:28:00,
2013-11-04 12:33:00,42.0,35.0,29.32,ENE,66,9.2,9.2,76,0.00,BKN,,0.00,67.0,WeatherDisplay:10.37,2013-11-04 21:33:00,
2013-11-04 12:38:00,42.0,34.6,29.32,NE,55,11.5,11.5,75,0.00,BKN,,0.00,70.0,WeatherDisplay:10.37,2013-11-04 21:38:00,
2013-11-04 12:43:00,41.9,34.6,29.32,NE,50,8.0,8.0,75,0.00,BKN,,0.00,70.0,WeatherDisplay:10.37,2013-11-04 21:43:00,
2013-11-04 12:48:00,41.9,34.9,29.32,NE,47,9.2,9.2,76,0.00,BKN,,0.00,69.0,WeatherDisplay:10.37,2013-11-04 21:48:00,
2013-11-04 12:53:00,41.9,34.9,29.31,ENE,64,10.4,10.4,76,0.00,BKN,,0.00,69.0,WeatherDisplay:10.37,2013-11-04 21:53:00,
2013-11-04 12:58:00,41.9,34.9,29.31,East,80,10.4,10.4,76,0.00,BKN,,0.00,72.0,WeatherDisplay:10.37,2013-11-04 21:58:00,
2013-11-04 13:03:00,41.9,34.9,29.31,North,355,11.5,11.5,76,0.00,OVC,,0.00,77.0,WeatherDisplay:10.37,2013-11-04 22:03:00,
2013-11-04 13:08:00,41.9,34.9,29.31,ENE,64,3.5,3.5,76,0.00,OVC,,0.00,79.0,WeatherDisplay:10.37,2013-11-04 22:08:00,
2013-11-04 13:13:00,41.9,35.2,29.31,East,82,10.4,10.4,77,0.00,OVC,,0.00,79.0,WeatherDisplay:10.37,2013-11-04 22:13:00,
2013-11-04 13:18:00,41.9,35.2,29.31,East,82,6.9,6.9,77,0.00,OVC,,0.00,77.0,WeatherDisplay:10.37,2013-11-04 22:18:00,
2013-11-04 13:23:00,41.9,35.5,29.31,East,84,3.5,3.5,78,0.00,OVC,,0.00,72.0,WeatherDisplay:10.37,2013-11-04 22:23:00,
2013-11-04 13:28:00,41.9,35.2,29.31,NE,47,10.4,10.4,77,0.00,OVC,,0.00,63.0,WeatherDisplay:10.37,2013-11-04 22:28:00,
2013-11-04 13:33:00,41.9,35.2,29.31,ENE,69,3.5,3.5,77,0.00,OVC,,0.00,56.0,WeatherDisplay:10.37,2013-11-04 22:33:00,
2013-11-04 13:38:00,41.8,35.1,29.31,ENE,76,3.5,3.5,77,0.00,OVC,,0.00,51.0,WeatherDisplay:10.37,2013-11-04 22:38:00,
2013-11-04 13:43:00,41.8,35.4,29.31,East,93,5.8,5.8,78,0.00,OVC,,0.00,46.0,WeatherDisplay:10.37,2013-11-04 22:43:00,
2013-11-04 13:48:00,41.8,35.4,29.31,East,85,9.2,9.2,78,0.00,OVC,,0.00,44.0,WeatherDisplay:10.37,2013-11-04 22:48:00,
2013-11-04 13:53:00,41.7,35.3,29.31,East,89,3.5,3.5,78,0.00,OVC,,0.00,42.0,WeatherDisplay:10.37,2013-11-04 22:53:00,
2013-11-04 13:58:00,41.6,35.2,29.31,ENE,67,4.6,4.6,78,0.00,OVC,,0.00,39.0,WeatherDisplay:10.37,2013-11-04 22:58:00,
2013-11-04 14:03:00,41.5,35.2,29.31,ENE,76,5.8,5.8,78,0.00,OVC,,0.00,37.0,WeatherDisplay:10.37,2013-11-04 23:03:00,
2013-11-04 14:08:00,41.5,35.2,29.31,East,85,6.9,6.9,78,0.00,OVC,,0.00,35.0,WeatherDisplay:10.37,2013-11-04 23:08:00,
2013-11-04 14:13:00,41.4,35.1,29.31,ENE,67,3.5,3.5,78,0.00,OVC,,0.00,33.0,WeatherDisplay:10.37,2013-11-04 23:13:00,
2013-11-04 14:18:00,41.4,35.1,29.31,East,92,4.6,4.6,78,0.00,OVC,,0.00,32.0,WeatherDisplay:10.37,2013-11-04 23:18:00,
2013-11-04 14:23:00,41.3,35.0,29.31,ENE,77,4.6,4.6,78,0.00,OVC,,0.00,32.0,WeatherDisplay:10.37,2013-11-04 23:23:00,
2013-11-04 14:28:00,41.4,35.1,29.30,NE,45,5.8,5.8,78,0.00,OVC,,0.00,30.0,WeatherDisplay:10.37,2013-11-04 23:28:00,
2013-11-04 14:33:00,41.3,35.0,29.30,NE,37,4.0,4.0,78,0.00,OVC,,0.00,28.0,WeatherDisplay:10.37,2013-11-04 23:33:00,
2013-11-04 14:38:00,41.3,35.3,29.30,ENE,63,6.9,6.9,79,0.00,OVC,,0.00,30.0,WeatherDisplay:10.37,2013-11-04 23:38:00,
2013-11-04 14:43:00,41.3,35.3,29.30,ENE,69,2.3,2.3,79,0.00,OVC,,0.00,30.0,WeatherDisplay:10.37,2013-11-04 23:43:00,
2013-11-04 14:48:00,41.3,35.3,29.30,ENE,65,4.6,4.6,79,0.00,OVC,,0.00,32.0,WeatherDisplay:10.37,2013-11-04 23:48:00,
2013-11-04 14:53:00,41.3,35.3,29.30,East,79,3.5,3.5,79,0.00,OVC,,0.00,33.0,WeatherDisplay:10.37,2013-11-04 23:53:00,
2013-11-04 14:58:00,41.3,35.3,29.30,East,88,3.5,3.5,79,0.00,OVC,,0.00,37.0,WeatherDisplay:10.37,2013-11-04 23:58:00,
2013-11-04 15:03:00,41.3,35.3,29.30,East,97,4.6,4.6,79,0.00,OVC,,0.00,39.0,WeatherDisplay:10.37,2013-11-05 00:03:00,
2013-11-04 15:08:00,41.3,35.0,29.30,East,86,3.5,3.5,78,0.00,OVC,,0.00,40.0,WeatherDisplay:10.37,2013-11-05 00:08:00,
2013-11-04 15:13:00,41.3,35.0,29.30,ENE,78,3.5,3.5,78,0.00,OVC,,0.00,40.0,WeatherDisplay:10.37,2013-11-05 00:13:00,
2013-11-04 15:18:00,41.3,35.0,29.30,East,94,8.0,8.0,78,0.00,OVC,,0.00,40.0,WeatherDisplay:10.37,2013-11-05 00:18:00,
2013-11-04 15:23:00,41.4,35.1,29.30,ENE,76,4.6,4.6,78,0.00,OVC,,0.00,40.0,WeatherDisplay:10.37,2013-11-05 00:23:00,
2013-11-04 15:28:00,41.4,35.1,29.30,ENE,67,6.9,6.9,78,0.00,OVC,,0.00,39.0,WeatherDisplay:10.37,2013-11-05 00:28:00,
2013-11-04 15:33:00,41.4,34.7,29.30,East,97,3.5,3.5,77,0.00,OVC,,0.00,37.0,WeatherDisplay:10.37,2013-11-05 00:33:00,
2013-11-04 15:38:00,41.3,35.0,29.30,ENE,77,3.5,3.5,78,0.00,OVC,,0.00,37.0,WeatherDisplay:10.37,2013-11-05 00:38:00,
2013-11-04 15:43:00,41.3,34.6,29.30,ENE,71,3.5,3.5,77,0.00,OVC,,0.00,37.0,WeatherDisplay:10.37,2013-11-05 00:43:00,
2013-11-04 15:48:00,41.3,34.6,29.30,NE,37,2.0,2.0,77,0.00,OVC,,0.00,33.0,WeatherDisplay:10.37,2013-11-05 00:48:00,
2013-11-04 15:53:00,41.3,34.6,29.30,ESE,103,3.5,3.5,77,0.00,OVC,,0.00,30.0,WeatherDisplay:10.37,2013-11-05 00:53:00,
2013-11-04 15:58:00,41.3,35.0,29.30,ENE,72,3.5,3.5,78,0.00,OVC,,0.00,26.0,WeatherDisplay:10.37,2013-11-05 00:58:00,
2013-11-04 16:03:00,41.2,34.9,29.30,ENE,72,2.3,2.3,78,0.00,OVC,,0.00,23.0,WeatherDisplay:10.37,2013-11-05 01:03:00,
2013-11-04 16:08:00,41.1,34.8,29.30,ENE,72,1.2,1.2,78,0.00,OVC,,0.00,19.0,WeatherDisplay:10.37,2013-11-05 01:08:00,
2013-11-04 16:13:00,41.1,34.8,29.30,ENE,72,1.2,1.2,78,0.00,OVC,,0.00,16.0,WeatherDisplay:10.37,2013-11-05 01:13:00,
2013-11-04 16:18:00,41.0,34.7,29.30,ENE,72,2.3,2.3,78,0.00,OVC,,0.00,12.0,WeatherDisplay:10.37,2013-11-05 01:18:00,
2013-11-04 16:23:00,41.0,34.7,29.30,East,82,2.3,0.0,78,0.00,OVC,,0.00,11.0,WeatherDisplay:10.37,2013-11-05 01:23:00,
2013-11-04 16:28:00,40.9,34.6,29.30,East,82,2.3,2.3,78,0.00,OVC,,0.00,11.0,WeatherDisplay:10.37,2013-11-05 01:28:00,
2013-11-04 16:33:00,40.9,34.6,29.30,East,82,1.2,0.0,78,0.00,OVC,,0.00,11.0,WeatherDisplay:10.37,2013-11-05 01:33:00,
2013-11-04 16:38:00,40.8,34.8,29.30,East,82,1.2,0.0,79,0.00,OVC,,0.00,9.0,WeatherDisplay:10.37,2013-11-05 01:38:00,
2013-11-04 16:43:00,40.7,34.7,29.30,East,82,1.2,0.0,79,0.00,OVC,,0.00,7.0,WeatherDisplay:10.37,2013-11-05 01:43:00,
2013-11-04 16:48:00,40.6,34.6,29.30,East,82,0.0,0.0,79,0.00,OVC,,0.00,5.0,WeatherDisplay:10.37,2013-11-05 01:48:00,
2013-11-04 16:53:00,40.6,34.6,29.30,East,82,0.0,0.0,79,0.00,OVC,,0.00,0.0,WeatherDisplay:10.37,2013-11-05 01:53:00,
2013-11-04 16:58:00,40.5,34.8,29.30,East,82,1.2,1.2,80,0.00,OVC,,0.00,0.0,WeatherDisplay:10.37,2013-11-05 01:58:00,
2013-11-04 17:03:00,40.3,34.6,29.30,East,82,0.0,0.0,80,0.00,OVC,,0.00,0.0,WeatherDisplay:10.37,2013-11-05 02:03:00,
2013-11-04 17:08:00,40.2,34.5,29.30,East,82,1.2,1.2,80,0.00,OVC,,0.00,0.0,WeatherDisplay:10.37,2013-11-05 02:08:00,
2013-11-04 17:13:00,40.0,34.6,29.30,East,82,2.3,2.3,81,0.00,OVC,,0.00,0.0,WeatherDisplay:10.37,2013-11-05 02:13:00,
2013-11-04 17:18:00,39.9,34.5,29.30,East,82,0.0,0.0,81,0.00,OVC,,0.00,0.0,WeatherDisplay:10.37,2013-11-05 02:18:00,
2013-11-04 17:23:00,39.7,34.3,29.30,East,82,0.0,0.0,81,0.00,OVC,,0.00,0.0,WeatherDisplay:10.37,2013-11-05 02:23:00,
2013-11-04 17:28:00,39.6,34.6,29.30,East,82,0.0,0.0,82,0.00,OVC,,0.00,0.0,WeatherDisplay:10.37,2013-11-05 02:28:00,
2013-11-04 17:33:00,39.4,34.7,29.30,East,82,0.0,0.0,83,0.00,OVC,,0.00,0.0,WeatherDisplay:10.37,2013-11-05 02:33:00,
2013-11-04 17:38:00,39.3,34.6,29.30,East,82,0.0,0.0,83,0.00,OVC,,0.00,0.0,WeatherDisplay:10.37,2013-11-05 02:38:00,
2013-11-04 17:43:00,39.2,34.5,29.30,East,82,0.0,0.0,83,0.00,OVC,,0.00,0.0,WeatherDisplay:10.37,2013-11-05 02:43:00,
2013-11-04 17:48:00,39.0,34.6,29.30,East,82,0.0,0.0,84,0.00,OVC,,0.00,0.0,WeatherDisplay:10.37,2013-11-05 02:48:00,
2013-11-04 17:53:00,38.9,34.5,29.30,East,82,0.0,0.0,84,0.00,OVC,,0.00,0.0,WeatherDisplay:10.37,2013-11-05 02:53:00,
2013-11-04 17:58:00,38.7,34.3,29.30,East,82,0.0,0.0,84,0.00,OVC,,0.00,0.0,WeatherDisplay:10.37,2013-11-05 02:58:00,
2013-11-04 18:03:00,38.6,34.5,29.30,East,82,0.0,0.0,85,0.00,OVC,,0.00,0.0,WeatherDisplay:10.37,2013-11-05 03:03:00,
2013-11-04 18:08:00,38.4,34.3,29.30,East,82,0.0,0.0,85,0.00,OVC,,0.00,0.0,WeatherDisplay:10.37,2013-11-05 03:08:00,
2013-11-04 18:13:00,38.3,34.5,29.30,East,82,0.0,0.0,86,0.00,OVC,,0.00,0.0,WeatherDisplay:10.37,2013-11-05 03:13:00,
2013-11-04 18:18:00,38.2,34.4,29.30,East,82,0.0,0.0,86,0.00,OVC,,0.00,0.0,WeatherDisplay:10.37,2013-11-05 03:18:00,
2013-11-04 18:23:00,38.0,34.2,29.30,East,82,0.0,0.0,86,0.00,OVC,,0.00,0.0,WeatherDisplay:10.37,2013-11-05 03:23:00,
2013-11-04 18:28:00,37.9,34.1,29.30,East,82,0.0,0.0,86,0.00,OVC,,0.00,0.0,WeatherDisplay:10.37,2013-11-05 03:28:00,
2013-11-04 18:33:00,37.7,33.9,29.30,East,82,0.0,0.0,86,0.00,OVC,,0.00,0.0,WeatherDisplay:10.37,2013-11-05 03:33:00,
2013-11-04 18:38:00,37.6,33.8,29.31,East,82,0.0,0.0,86,0.00,OVC,,0.00,0.0,WeatherDisplay:10.37,2013-11-05 03:38:00,
2013-11-04 18:43:00,37.5,33.7,29.31,East,82,0.0,0.0,86,0.00,OVC,,0.00,0.0,WeatherDisplay:10.37,2013-11-05 03:43:00,
2013-11-04 18:48:00,37.4,33.9,29.31,East,82,0.0,0.0,87,0.00,OVC,,0.00,0.0,WeatherDisplay:10.37,2013-11-05 03:48:00,
2013-11-04 18:53:00,37.2,33.7,29.31,East,82,0.0,0.0,87,0.00,OVC,,0.00,0.0,WeatherDisplay:10.37,2013-11-05 03:53:00,
2013-11-04 18:58:00,37.1,33.6,29.30,East,82,0.0,0.0,87,0.00,OVC,,0.00,0.0,WeatherDisplay:10.37,2013-11-05 03:58:00,
2013-11-04 19:03:00,37.0,33.8,29.31,East,82,0.0,0.0,88,0.00,OVC,,0.00,0.0,WeatherDisplay:10.37,2013-11-05 04:03:00,
2013-11-04 19:08:00,36.9,33.7,29.31,East,82,0.0,0.0,88,0.00,OVC,,0.00,0.0,WeatherDisplay:10.37,2013-11-05 04:08:00,
2013-11-04 19:13:00,36.8,33.6,29.31,East,82,0.0,0.0,88,0.00,OVC,,0.00,0.0,WeatherDisplay:10.37,2013-11-05 04:13:00,
2013-11-04 19:18:00,36.7,33.5,29.31,East,82,2.0,0.0,88,0.00,OVC,,0.00,0.0,WeatherDisplay:10.37,2013-11-05 04:18:00,
2013-11-04 19:23:00,36.6,33.4,29.31,East,82,1.2,1.2,88,0.00,OVC,,0.00,0.0,WeatherDisplay:10.37,2013-11-05 04:23:00,
2013-11-04 19:28:00,36.6,33.7,29.31,East,82,0.0,0.0,89,0.00,OVC,,0.00,0.0,WeatherDisplay:10.37,2013-11-05 04:28:00,
2013-11-04 19:33:00,36.5,33.6,29.31,East,82,0.0,0.0,89,0.00,OVC,,0.00,0.0,WeatherDisplay:10.37,2013-11-05 04:33:00,
2013-11-04 19:38:00,36.5,33.6,29.32,East,82,0.0,0.0,89,0.00,OVC,,0.00,0.0,WeatherDisplay:10.37,2013-11-05 04:38:00,
2013-11-04 19:43:00,36.4,33.5,29.32,East,82,0.0,0.0,89,0.00,OVC,,0.00,0.0,WeatherDisplay:10.37,2013-11-05 04:43:00,
2013-11-04 19:48:00,36.3,33.4,29.32,East,82,0.0,0.3,89,0.00,OVC,,0.00,0.0,WeatherDisplay:10.37,2013-11-05 04:48:00,
2013-11-04 19:53:00,36.3,33.4,29.32,East,82,0.0,0.0,89,0.00,OVC,,0.00,0.0,WeatherDisplay:10.37,2013-11-05 04:53:00,
2013-11-04 19:58:00,36.2,33.3,29.32,East,82,0.0,0.0,89,0.00,OVC,,0.00,0.0,WeatherDisplay:10.37,2013-11-05 04:58:00,
2013-11-04 20:01:00,36.2,33.5,29.32,East,82,0.0,0.0,90,0.00,OVC,,0.00,0.0,WeatherDisplay:10.37,2013-11-05 05:01:00,
2013-11-04 20:02:00,36.2,33.3,29.32,East,82,0.0,0.0,89,0.00,OVC,,0.00,0.0,WeatherDisplay:10.37,2013-11-05 05:02:00,
2013-11-04 20:03:00,36.2,33.5,29.32,East,82,0.0,0.0,90,0.00,OVC,,0.00,0.0,WeatherDisplay:10.37,2013-11-05 05:03:00,
2013-11-04 20:08:00,36.3,33.6,29.32,East,82,0.0,0.0,90,0.00,OVC,,0.00,0.0,WeatherDisplay:10.37,2013-11-05 05:08:00,
2013-11-04 20:13:00,36.4,33.7,29.32,East,82,0.0,0.0,90,0.00,OVC,,0.00,0.0,WeatherDisplay:10.37,2013-11-05 05:13:00,
2013-11-04 20:18:00,36.4,33.7,29.32,East,82,0.0,0.0,90,0.00,OVC,,0.00,0.0,WeatherDisplay:10.37,2013-11-05 05:18:00,
2013-11-04 20:23:00,36.3,33.6,29.32,East,82,0.0,0.0,90,0.00,OVC,,0.00,0.0,WeatherDisplay:10.37,2013-11-05 05:23:00,
2013-11-04 20:28:00,36.1,33.2,29.32,East,82,0.0,0.0,89,0.00,OVC,,0.00,0.0,WeatherDisplay:10.37,2013-11-05 05:28:00,
2013-11-04 20:33:00,36.0,33.4,29.32,East,82,0.0,0.0,90,0.00,OVC,,0.00,0.0,WeatherDisplay:10.37,2013-11-05 05:33:00,
2013-11-04 20:38:00,35.8,33.2,29.32,East,82,0.0,0.0,90,0.00,OVC,,0.00,0.0,WeatherDisplay:10.37,2013-11-05 05:38:00,
2013-11-04 20:43:00,35.7,33.1,29.33,East,82,0.0,0.0,90,0.00,OVC,,0.00,0.0,WeatherDisplay:10.37,2013-11-05 05:43:00,
2013-11-04 20:48:00,35.5,32.9,29.33,East,82,0.0,0.0,90,0.00,OVC,,0.00,0.0,WeatherDisplay:10.37,2013-11-05 05:48:00,
2013-11-04 20:53:00,35.3,32.7,29.33,East,82,0.0,0.0,90,0.00,OVC,,0.00,0.0,WeatherDisplay:10.37,2013-11-05 05:53:00,
2013-11-04 20:58:00,35.1,32.5,29.33,East,82,0.0,0.0,90,0.00,OVC,,0.00,0.0,WeatherDisplay:10.37,2013-11-05 05:58:00,
2013-11-04 21:03:00,35.0,32.4,29.34,East,82,0.0,0.0,90,0.00,OVC,,0.00,0.0,WeatherDisplay:10.37,2013-11-05 06:03:00,
2013-11-04 21:08:00,34.7,32.1,29.33,East,82,0.0,0.0,90,0.00,OVC,,0.00,0.0,WeatherDisplay:10.37,2013-11-05 06:08:00,
2013-11-04 21:13:00,34.5,31.9,29.34,East,82,0.0,0.0,90,0.00,OVC,,0.00,0.0,WeatherDisplay:10.37,2013-11-05 06:13:00,
2013-11-04 21:18:00,34.3,31.7,29.34,East,82,0.0,0.0,90,0.00,OVC,,0.00,0.0,WeatherDisplay:10.37,2013-11-05 06:18:00,
2013-11-04 21:23:00,34.2,31.8,29.34,East,82,0.0,0.0,91,0.00,OVC,,0.00,0.0,WeatherDisplay:10.37,2013-11-05 06:23:00,
2013-11-04 21:28:00,34.1,31.7,29.34,East,82,0.0,0.0,91,0.00,OVC,,0.00,0.0,WeatherDisplay:10.37,2013-11-05 06:28:00,
2013-11-04 21:33:00,33.9,31.6,29.34,East,82,0.0,0.0,91,0.00,OVC,,0.00,0.0,WeatherDisplay:10.37,2013-11-05 06:33:00,
2013-11-04 21:38:00,33.8,31.5,29.35,East,82,0.0,0.0,91,0.00,OVC,,0.00,0.0,WeatherDisplay:10.37,2013-11-05 06:38:00,
2013-11-04 21:43:00,33.6,31.3,29.35,East,82,0.0,0.0,91,0.00,OVC,,0.00,0.0,WeatherDisplay:10.37,2013-11-05 06:43:00,
2013-11-04 21:48:00,33.4,31.1,29.34,East,82,0.0,0.0,91,0.00,OVC,,0.00,0.0,WeatherDisplay:10.37,2013-11-05 06:48:00,
2013-11-04 21:53:00,33.3,31.0,29.35,East,82,0.0,0.0,91,0.00,OVC,,0.00,0.0,WeatherDisplay:10.37,2013-11-05 06:53:00,
2013-11-04 21:58:00,33.1,30.8,29.35,East,82,0.0,0.0,91,0.00,OVC,,0.00,0.0,WeatherDisplay:10.37,2013-11-05 06:58:00,
2013-11-04 22:03:00,32.9,30.6,29.35,East,82,0.0,0.0,91,0.00,OVC,,0.00,0.0,WeatherDisplay:10.37,2013-11-05 07:03:00,
2013-11-04 22:08:00,32.7,30.4,29.35,East,82,0.0,0.0,91,0.00,OVC,,0.00,0.0,WeatherDisplay:10.37,2013-11-05 07:08:00,
2013-11-04 22:13:00,32.5,30.2,29.35,East,82,0.0,0.0,91,0.00,OVC,,0.00,0.0,WeatherDisplay:10.37,2013-11-05 07:13:00,
2013-11-04 22:19:00,32.4,30.1,29.35,East,82,0.0,0.0,91,0.00,OVC,,0.00,0.0,WeatherDisplay:10.37,2013-11-05 07:19:00,
2013-11-04 22:24:00,32.1,29.8,29.35,East,82,0.0,0.0,91,0.00,OVC,,0.00,0.0,WeatherDisplay:10.37,2013-11-05 07:24:00,
2013-11-04 22:29:00,32.0,29.9,29.35,East,82,0.0,0.0,92,0.00,OVC,,0.00,0.0,WeatherDisplay:10.37,2013-11-05 07:29:00,
2013-11-04 22:34:00,31.8,29.7,29.35,East,82,0.0,0.0,92,0.00,FEW,,0.00,0.0,WeatherDisplay:10.37,2013-11-05 07:34:00,
2013-11-04 22:39:00,31.6,29.5,29.36,East,82,0.0,0.0,92,0.00,FEW,,0.00,0.0,WeatherDisplay:10.37,2013-11-05 07:39:00,
2013-11-04 22:44:00,31.5,29.4,29.36,East,82,0.0,0.0,92,0.00,FEW,,0.00,0.0,WeatherDisplay:10.37,2013-11-05 07:44:00,
2013-11-04 22:49:00,31.3,29.2,29.36,East,82,0.0,0.0,92,0.00,FEW,,0.00,0.0,WeatherDisplay:10.37,2013-11-05 07:49:00,
2013-11-04 22:54:00,31.1,29.0,29.36,East,82,0.0,0.0,92,0.00,FEW,,0.00,0.0,WeatherDisplay:10.37,2013-11-05 07:54:00,
2013-11-04 22:59:00,31.0,28.9,29.36,East,82,0.0,0.0,92,0.00,FEW,,0.00,0.0,WeatherDisplay:10.37,2013-11-05 07:59:00,
2013-11-04 23:04:00,30.8,28.8,29.36,East,82,0.0,0.0,92,0.00,BKN,,0.00,0.0,WeatherDisplay:10.37,2013-11-05 08:04:00,
2013-11-04 23:09:00,30.7,28.9,29.36,East,82,0.0,0.0,93,0.00,BKN,,0.00,0.0,WeatherDisplay:10.37,2013-11-05 08:09:00,
2013-11-04 23:14:00,30.6,28.8,29.36,East,82,0.0,0.0,93,0.00,BKN,,0.00,0.0,WeatherDisplay:10.37,2013-11-05 08:14:00,
2013-11-04 23:19:00,30.6,28.8,29.36,East,82,0.0,0.0,93,0.00,BKN,,0.00,0.0,WeatherDisplay:10.37,2013-11-05 08:19:00,
2013-11-04 23:24:00,30.5,28.7,29.37,East,82,0.0,0.0,93,0.00,BKN,,0.00,0.0,WeatherDisplay:10.37,2013-11-05 08:24:00,
2013-11-04 23:29:00,30.4,28.6,29.37,East,82,0.0,0.0,93,0.00,BKN,,0.00,0.0,WeatherDisplay:10.37,2013-11-05 08:29:00,
2013-11-04 23:34:00,30.3,28.5,29.37,East,82,0.0,0.0,93,0.00,BKN,,0.00,0.0,WeatherDisplay:10.37,2013-11-05 08:34:00,
2013-11-04 23:39:00,30.2,28.4,29.37,East,82,0.0,0.0,93,0.00,BKN,,0.00,0.0,WeatherDisplay:10.37,2013-11-05 08:39:00,
2013-11-04 23:44:00,30.1,28.3,29.37,East,82,0.0,0.0,93,0.00,BKN,,0.00,0.0,WeatherDisplay:10.37,2013-11-05 08:44:00,
2013-11-04 23:49:00,30.1,28.6,29.37,East,82,0.0,0.0,94,0.00,BKN,,0.00,0.0,WeatherDisplay:10.37,2013-11-05 08:49:00,
2013-11-04 23:54:00,30.1,28.6,29.37,East,82,0.0,0.0,94,0.00,BKN,,0.00,0.0,WeatherDisplay:10.37,2013-11-05 08:54:00,
2013-11-04 23:59:00,30.1,28.6,29.38,East,82,0.0,0.0,94,0.00,BKN,,0.00,0.0,WeatherDisplay:10.37,2013-11-05 08:59:00,